Time;durP1;ratioP1;P1;durP2;ratioP2;P2;SDS_P1;SDS_P2;PMS_P1;PMS_P2;Temp;Humidity;BMP_temperature;BMP_pressure;BME280_temperature;BME280_humidity;BME280_pressure;Samples;Min_cycle;Max_cycle;Signal;HPM_P1;HPM_P2
2020/12/03 00:00:24;;;;;;;35.95;16.58;;;;;;;;;;5092510;28;20055;-74
2020/12/03 00:02:50;;;;;;;32.95;16.23;;;;;;;;;;5092370;28;20032;-74
2020/12/03 00:05:16;;;;;;;35.78;16.23;;;;;;;;;;5092572;28;20031;-74
2020/12/03 00:07:42;;;;;;;33.83;15.88;;;;;;;;;;5092545;28;20107;-74
2020/12/03 00:10:09;;;;;;;36.58;16.90;;;;;;;;;;5092439;28;20046;-74
2020/12/03 00:12:35;;;;;;;35.13;16.48;;;;;;;;;;5092464;28;20054;-78
2020/12/03 00:15:01;;;;;;;34.78;16.83;;;;;;;;;;5092398;28;20047;-74
2020/12/03 00:17:27;;;;;;;31.05;15.88;;;;;;;;;;5092361;28;20016;-79
2020/12/03 00:19:53;;;;;;;32.17;15.35;;;;;;;;;;5092412;28;20091;-74
2020/12/03 00:22:19;;;;;;;35.45;16.33;;;;;;;;;;5092516;28;20476;-75
2020/12/03 00:24:45;;;;;;;37.38;16.60;;;;;;;;;;5091636;28;20012;-75
2020/12/03 00:27:13;;;;;;;38.63;17.23;;;;;;;;;;5092222;28;20482;-74
2020/12/03 00:29:39;;;;;;;37.53;17.08;;;;;;;;;;5092064;28;20016;-74
2020/12/03 00:32:06;;;;;;;41.50;18.17;;;;;;;;;;5092207;28;20024;-75
2020/12/03 00:34:32;;;;;;;43.85;18.25;;;;;;;;;;5092308;28;20024;-79
2020/12/03 00:36:58;;;;;;;39.90;17.85;;;;;;;;;;5092165;28;20149;-74
2020/12/03 00:39:24;;;;;;;48.75;21.95;;;;;;;;;;5092277;28;20020;-75
2020/12/03 00:41:51;;;;;;;51.08;21.83;;;;;;;;;;5090796;28;20127;-74
2020/12/03 00:44:18;;;;;;;51.55;21.98;;;;;;;;;;5092102;28;20464;-74
2020/12/03 00:46:44;;;;;;;50.47;21.92;;;;;;;;;;5092087;28;20028;-74
2020/12/03 00:49:10;;;;;;;47.92;19.73;;;;;;;;;;5092117;28;20144;-79
2020/12/03 00:51:36;;;;;;;47.58;19.67;;;;;;;;;;5092127;28;20016;-74
2020/12/03 00:54:02;;;;;;;39.20;18.63;;;;;;;;;;5091969;28;20024;-78
2020/12/03 00:56:28;;;;;;;37.78;18.00;;;;;;;;;;5092090;28;20541;-78
2020/12/03 00:58:54;;;;;;;38.05;17.10;;;;;;;;;;5083982;28;20390;-78
2020/12/03 01:01:21;;;;;;;39.58;16.25;;;;;;;;;;5071715;28;20040;-74
2020/12/03 01:03:48;;;;;;;37.15;17.98;;;;;;;;;;5070539;28;20476;-74
2020/12/03 01:06:15;;;;;;;37.13;15.60;;;;;;;;;;5071328;28;20357;-74
2020/12/03 01:08:41;;;;;;;38.05;17.65;;;;;;;;;;5071848;28;20020;-74
2020/12/03 01:11:07;;;;;;;38.72;17.38;;;;;;;;;;5071692;28;20100;-74
2020/12/03 01:13:33;;;;;;;36.83;16.73;;;;;;;;;;5071718;28;20066;-73
2020/12/03 01:16:00;;;;;;;36.92;17.20;;;;;;;;;;5071379;28;20020;-73
2020/12/03 01:18:26;;;;;;;38.80;18.17;;;;;;;;;;5071827;28;20445;-75
2020/12/03 01:20:52;;;;;;;38.67;17.35;;;;;;;;;;5071627;28;20031;-74
2020/12/03 01:23:19;;;;;;;37.78;17.23;;;;;;;;;;5071402;28;20029;-74
2020/12/03 01:25:45;;;;;;;35.83;16.30;;;;;;;;;;5071596;28;20099;-74
2020/12/03 01:28:11;;;;;;;35.80;16.27;;;;;;;;;;5071530;28;20028;-74
2020/12/03 01:30:39;;;;;;;39.97;16.85;;;;;;;;;;5071502;28;20043;-74
2020/12/03 01:33:05;;;;;;;38.60;17.13;;;;;;;;;;5071492;28;20326;-74
2020/12/03 01:35:31;;;;;;;39.47;18.45;;;;;;;;;;5072867;28;20029;-74
2020/12/03 01:37:57;;;;;;;42.05;18.23;;;;;;;;;;5075077;28;20020;-73
2020/12/03 01:40:25;;;;;;;38.85;17.23;;;;;;;;;;5075235;28;20052;-78
2020/12/03 01:42:51;;;;;;;38.70;16.65;;;;;;;;;;5074842;28;20033;-79
2020/12/03 01:45:36;;;;;;;41.30;16.88;;;;;;;;;;5074930;28;20012;-74
2020/12/03 01:48:02;;;;;;;40.28;18.05;;;;;;;;;;5074697;28;20094;-79
2020/12/03 01:50:28;;;;;;;36.78;17.00;;;;;;;;;;5075089;28;20024;-74
2020/12/03 01:52:54;;;;;;;38.50;16.15;;;;;;;;;;5074847;28;20027;-75
2020/12/03 01:55:20;;;;;;;38.63;17.23;;;;;;;;;;5074763;28;20030;-74
2020/12/03 01:58:02;;;;;;;37.80;18.08;;;;;;;;;;5074762;28;20021;-74
2020/12/03 02:00:29;;;;;;;37.47;16.73;;;;;;;;;;5074690;28;20035;-74
2020/12/03 02:02:55;;;;;;;37.20;16.83;;;;;;;;;;5074828;28;20080;-75
2020/12/03 02:05:23;;;;;;;40.17;18.63;;;;;;;;;;5074437;28;20017;-73
2020/12/03 02:07:50;;;;;;;37.47;17.05;;;;;;;;;;5077738;28;20470;-74
2020/12/03 02:10:17;;;;;;;42.03;17.35;;;;;;;;;;5094812;28;20027;-75
2020/12/03 02:12:43;;;;;;;37.95;18.60;;;;;;;;;;5094836;28;20031;-74
2020/12/03 02:15:10;;;;;;;38.38;17.13;;;;;;;;;;5094469;28;20039;-74
2020/12/03 02:17:36;;;;;;;38.30;16.95;;;;;;;;;;5094539;28;20020;-73
2020/12/03 02:20:04;;;;;;;39.58;16.17;;;;;;;;;;5094468;28;20051;-74
2020/12/03 02:22:30;;;;;;;35.75;17.85;;;;;;;;;;5094140;28;20117;-74
2020/12/03 02:24:56;;;;;;;36.40;16.08;;;;;;;;;;5094449;28;20058;-74
2020/12/03 02:27:24;;;;;;;36.80;16.05;;;;;;;;;;5093053;28;20024;-74
2020/12/03 02:29:50;;;;;;;38.10;16.98;;;;;;;;;;5092912;28;20024;-74
2020/12/03 02:32:17;;;;;;;39.78;17.10;;;;;;;;;;5094424;28;20028;-74
2020/12/03 02:34:44;;;;;;;37.25;16.42;;;;;;;;;;5094497;28;20028;-74
2020/12/03 02:37:10;;;;;;;34.45;16.00;;;;;;;;;;5094472;28;20111;-73
2020/12/03 02:39:36;;;;;;;36.35;17.10;;;;;;;;;;5094047;28;20020;-75
2020/12/03 02:42:04;;;;;;;33.70;16.75;;;;;;;;;;5094104;28;20039;-75
2020/12/03 02:44:30;;;;;;;34.30;16.08;;;;;;;;;;5092920;28;20024;-74
2020/12/03 02:46:56;;;;;;;31.92;15.40;;;;;;;;;;5093738;28;20548;-74
2020/12/03 02:49:22;;;;;;;39.33;17.35;;;;;;;;;;5094163;28;20099;-74
2020/12/03 02:51:48;;;;;;;33.67;16.05;;;;;;;;;;5094070;28;20144;-73
2020/12/03 02:54:14;;;;;;;37.35;16.85;;;;;;;;;;5093853;28;20016;-74
2020/12/03 02:56:41;;;;;;;38.60;15.40;;;;;;;;;;5093934;28;20533;-74
2020/12/03 02:59:08;;;;;;;35.03;15.80;;;;;;;;;;5093735;28;20048;-78
2020/12/03 03:01:34;;;;;;;35.10;15.82;;;;;;;;;;5093502;28;20066;-74
2020/12/03 03:04:04;;;;;;;33.90;15.35;;;;;;;;;;5093680;28;20016;-74
2020/12/03 03:06:34;;;;;;;30.27;13.35;;;;;;;;;;5093804;28;20024;-77
2020/12/03 03:09:00;;;;;;;32.70;15.57;;;;;;;;;;5093646;28;20353;-74
2020/12/03 03:11:26;;;;;;;35.85;16.77;;;;;;;;;;5093858;28;20016;-78
2020/12/03 03:13:52;;;;;;;34.78;15.80;;;;;;;;;;5093506;28;20050;-74
2020/12/03 03:16:18;;;;;;;32.92;15.93;;;;;;;;;;5092233;28;20077;-76
2020/12/03 03:18:44;;;;;;;31.95;15.23;;;;;;;;;;5092230;28;20020;-74
2020/12/03 03:21:11;;;;;;;32.50;15.38;;;;;;;;;;5092178;28;20482;-76
2020/12/03 03:23:37;;;;;;;30.95;14.80;;;;;;;;;;5093502;28;20407;-74
2020/12/03 03:26:04;;;;;;;32.47;15.15;;;;;;;;;;5093302;28;20032;-74
2020/12/03 03:28:30;;;;;;;30.30;13.30;;;;;;;;;;5093283;28;20028;-74
2020/12/03 03:30:56;;;;;;;33.00;14.77;;;;;;;;;;5093279;28;20024;-74
2020/12/03 03:33:22;;;;;;;32.63;14.90;;;;;;;;;;5093327;28;20043;-75
2020/12/03 03:35:48;;;;;;;31.70;15.20;;;;;;;;;;5093204;28;20139;-74
2020/12/03 03:38:15;;;;;;;29.45;15.57;;;;;;;;;;5093109;28;20020;-79
2020/12/03 03:40:41;;;;;;;32.67;15.82;;;;;;;;;;5093313;28;20016;-74
2020/12/03 03:43:07;;;;;;;34.58;15.27;;;;;;;;;;5092850;28;20476;-74
2020/12/03 03:45:33;;;;;;;33.75;14.98;;;;;;;;;;5093064;28;20024;-78
2020/12/03 03:48:00;;;;;;;33.67;15.45;;;;;;;;;;5092916;28;20534;-76
2020/12/03 03:50:26;;;;;;;33.38;15.00;;;;;;;;;;5093248;28;20459;-75
2020/12/03 03:52:52;;;;;;;32.75;16.15;;;;;;;;;;5092901;28;20016;-74
2020/12/03 03:55:18;;;;;;;31.60;14.60;;;;;;;;;;5092775;28;20111;-74
2020/12/03 03:57:44;;;;;;;31.10;14.65;;;;;;;;;;5092838;28;20032;-74
2020/12/03 04:00:10;;;;;;;32.08;14.23;;;;;;;;;;5090451;28;20055;-76
2020/12/03 04:02:39;;;;;;;32.70;15.13;;;;;;;;;;5071819;28;20048;-73
2020/12/03 04:05:05;;;;;;;29.08;14.73;;;;;;;;;;5072070;28;20498;-75
2020/12/03 04:07:31;;;;;;;30.85;14.10;;;;;;;;;;5072238;28;20063;-74
2020/12/03 04:09:57;;;;;;;30.10;13.95;;;;;;;;;;5072188;28;20021;-75
2020/12/03 04:12:23;;;;;;;33.83;15.18;;;;;;;;;;5074392;28;20540;-75
2020/12/03 04:14:49;;;;;;;31.33;14.32;;;;;;;;;;5092557;28;20483;-74
2020/12/03 04:17:15;;;;;;;33.33;16.02;;;;;;;;;;5091972;28;20028;-74
2020/12/03 04:19:41;;;;;;;32.38;14.52;;;;;;;;;;5092510;28;20099;-73
2020/12/03 04:22:07;;;;;;;31.50;14.80;;;;;;;;;;5092247;28;20028;-73
2020/12/03 04:24:33;;;;;;;31.33;14.60;;;;;;;;;;5092499;28;20020;-73
2020/12/03 04:26:59;;;;;;;32.67;15.48;;;;;;;;;;5092249;28;20024;-74
2020/12/03 04:29:25;;;;;;;35.90;15.50;;;;;;;;;;5092411;28;20024;-73
2020/12/03 04:31:51;;;;;;;34.05;14.57;;;;;;;;;;5092246;28;20178;-75
2020/12/03 04:34:17;;;;;;;34.80;15.40;;;;;;;;;;5092200;28;20570;-74
2020/12/03 04:36:43;;;;;;;34.78;15.45;;;;;;;;;;5092441;28;20476;-73
2020/12/03 04:39:09;;;;;;;34.00;15.48;;;;;;;;;;5092594;28;20069;-74
2020/12/03 04:41:35;;;;;;;34.83;14.95;;;;;;;;;;5092216;28;20111;-73
2020/12/03 04:44:10;;;;;;;33.88;16.00;;;;;;;;;;5092220;28;20020;-74
2020/12/03 04:46:40;;;;;;;37.95;16.50;;;;;;;;;;5092141;28;20028;-73
2020/12/03 04:49:25;;;;;;;36.28;16.45;;;;;;;;;;5079028;28;20536;-73
2020/12/03 04:52:03;;;;;;;32.72;14.20;;;;;;;;;;5071946;28;20074;-74
2020/12/03 04:54:32;;;;;;;32.72;15.55;;;;;;;;;;5071716;28;20024;-74
2020/12/03 04:57:15;;;;;;;38.78;16.40;;;;;;;;;;5077261;28;20031;-73
2020/12/03 04:59:59;;;;;;;36.95;16.35;;;;;;;;;;5077632;28;20045;-73
2020/12/03 05:03:01;;;;;;;31.27;14.68;;;;;;;;;;5070438;28;20040;-74
2020/12/03 05:05:45;;;;;;;31.38;13.60;;;;;;;;;;5029937;28;20029;-73
2020/12/03 05:08:15;;;;;;;33.83;14.60;;;;;;;;;;5068226;28;20040;-73
2020/12/03 05:10:44;;;;;;;38.50;16.42;;;;;;;;;;5073470;28;20044;-72
2020/12/03 05:13:30;;;;;;;35.92;14.75;;;;;;;;;;5075150;28;20142;-73
2020/12/03 05:15:58;;;;;;;32.90;14.68;;;;;;;;;;5075427;28;20024;-77
2020/12/03 05:18:44;;;;;;;34.63;15.75;;;;;;;;;;5075732;28;20024;-74
2020/12/03 05:21:12;;;;;;;34.55;15.68;;;;;;;;;;5074241;28;20472;-78
2020/12/03 05:23:38;;;;;;;32.35;15.23;;;;;;;;;;5074198;28;20078;-76
2020/12/03 05:26:12;;;;;;;33.97;15.55;;;;;;;;;;5075330;28;20028;-74
2020/12/03 05:28:41;;;;;;;36.38;15.45;;;;;;;;;;5075460;28;20017;-74
2020/12/03 05:31:07;;;;;;;35.85;15.90;;;;;;;;;;5075603;28;20031;-74
2020/12/03 05:33:34;;;;;;;31.42;14.68;;;;;;;;;;5075476;28;20025;-75
2020/12/03 05:36:00;;;;;;;31.88;14.75;;;;;;;;;;5075246;28;20384;-75
2020/12/03 05:38:27;;;;;;;27.23;11.95;;;;;;;;;;5075587;28;20031;-78
2020/12/03 05:40:57;;;;;;;29.70;13.60;;;;;;;;;;5075439;28;20464;-74
2020/12/03 05:43:23;;;;;;;32.25;14.27;;;;;;;;;;5075457;28;20476;-74
2020/12/03 05:45:49;;;;;;;30.55;15.13;;;;;;;;;;5075132;28;20032;-74
2020/12/03 05:48:16;;;;;;;35.67;15.45;;;;;;;;;;5075149;28;20024;-74
2020/12/03 05:50:42;;;;;;;31.85;15.45;;;;;;;;;;5090830;28;20387;-74
2020/12/03 05:53:08;;;;;;;34.38;14.55;;;;;;;;;;5095271;28;20027;-77
2020/12/03 05:55:35;;;;;;;32.90;15.65;;;;;;;;;;5095192;28;20028;-74
2020/12/03 05:58:20;;;;;;;37.67;15.18;;;;;;;;;;5095126;28;20393;-74
2020/12/03 06:00:47;;;;;;;31.05;14.20;;;;;;;;;;5095098;28;20039;-74
2020/12/03 06:03:24;;;;;;;33.33;15.82;;;;;;;;;;5095053;28;20032;-73
2020/12/03 06:05:53;;;;;;;30.13;14.38;;;;;;;;;;5094969;28;20460;-73
2020/12/03 06:08:19;;;;;;;32.38;15.05;;;;;;;;;;5094916;28;20077;-74
2020/12/03 06:11:04;;;;;;;33.80;15.18;;;;;;;;;;5094982;28;20027;-75
2020/12/03 06:13:53;;;;;;;33.10;15.40;;;;;;;;;;5093639;28;20108;-73
2020/12/03 06:16:26;;;;;;;36.50;15.65;;;;;;;;;;5094816;28;20020;-74
2020/12/03 06:18:58;;;;;;;34.80;14.63;;;;;;;;;;5094717;28;20024;-73
2020/12/03 06:21:24;;;;;;;40.88;15.18;;;;;;;;;;5094087;28;20286;-73
2020/12/03 06:24:00;;;;;;;35.08;14.95;;;;;;;;;;5094383;28;20380;-74
2020/12/03 06:26:45;;;;;;;37.13;15.82;;;;;;;;;;5094435;28;20017;-74
2020/12/03 06:29:29;;;;;;;32.33;14.38;;;;;;;;;;5093306;28;20086;-73
2020/12/03 06:32:01;;;;;;;33.92;14.80;;;;;;;;;;5094432;28;20028;-74
2020/12/03 06:34:32;;;;;;;34.17;15.75;;;;;;;;;;5077252;28;20020;-72
2020/12/03 06:37:01;;;;;;;39.38;15.18;;;;;;;;;;5091865;28;20031;-74
2020/12/03 06:40:00;;;;;;;37.28;15.25;;;;;;;;;;5091814;28;20028;-73
2020/12/03 06:42:44;;;;;;;42.55;15.93;;;;;;;;;;5046705;28;20036;-72
2020/12/03 06:45:10;;;;;;;37.33;14.70;;;;;;;;;;5087286;28;20115;-73
2020/12/03 06:48:01;;;;;;;37.22;15.75;;;;;;;;;;5071453;28;20028;-72
2020/12/03 06:50:27;;;;;;;32.72;14.75;;;;;;;;;;5071763;28;20036;-72
2020/12/03 06:53:04;;;;;;;34.75;13.95;;;;;;;;;;5070190;28;20028;-73
2020/12/03 06:55:52;;;;;;;38.60;14.55;;;;;;;;;;5071348;28;20042;-75
2020/12/03 06:58:27;;;;;;;31.17;11.40;;;;;;;;;;5070688;28;20029;-72
2020/12/03 07:00:53;;;;;;;37.15;14.95;;;;;;;;;;5070936;28;20077;-73
2020/12/03 07:03:22;;;;;;;33.25;14.25;;;;;;;;;;5071149;28;20047;-72
2020/12/03 07:06:14;;;;;;;36.65;14.80;;;;;;;;;;5071175;28;20370;-74
2020/12/03 07:08:46;;;;;;;35.50;13.55;;;;;;;;;;5070903;28;20028;-72
2020/12/03 07:11:12;;;;;;;38.08;15.00;;;;;;;;;;5071078;28;20104;-73
2020/12/03 07:13:52;;;;;;;38.53;14.38;;;;;;;;;;5071277;28;20744;-72
2020/12/03 07:16:33;;;;;;;37.38;13.85;;;;;;;;;;5070892;28;20058;-73
2020/12/03 07:19:18;;;;;;;30.50;12.85;;;;;;;;;;5070764;28;20037;-72
2020/12/03 07:21:51;;;;;;;28.00;9.93;;;;;;;;;;5070318;28;20033;-71
2020/12/03 07:24:22;;;;;;;31.17;12.15;;;;;;;;;;5070777;28;20024;-71
2020/12/03 07:27:04;;;;;;;30.75;12.55;;;;;;;;;;5070480;28;20052;-72
2020/12/03 07:29:39;;;;;;;31.52;10.43;;;;;;;;;;5070467;28;20450;-72
2020/12/03 07:32:09;;;;;;;27.67;11.82;;;;;;;;;;5070537;28;20040;-71
2020/12/03 07:34:40;;;;;;;28.05;11.75;;;;;;;;;;5070189;28;20529;-72
2020/12/03 07:37:09;;;;;;;29.27;10.75;;;;;;;;;;5070525;28;20060;-72
2020/12/03 07:39:36;;;;;;;25.40;11.52;;;;;;;;;;5070573;28;20187;-72
2020/12/03 07:42:22;;;;;;;27.92;10.02;;;;;;;;;;5070346;28;20056;-72
2020/12/03 07:44:53;;;;;;;26.20;9.52;;;;;;;;;;5069832;28;20033;-72
2020/12/03 07:47:25;;;;;;;28.48;10.73;;;;;;;;;;5068914;28;20024;-72
2020/12/03 07:49:55;;;;;;;22.58;9.73;;;;;;;;;;5070232;28;20221;-72
2020/12/03 07:52:23;;;;;;;25.92;10.18;;;;;;;;;;5070206;28;20036;-76
2020/12/03 07:54:49;;;;;;;23.70;10.25;;;;;;;;;;5068904;28;20016;-72
2020/12/03 07:57:33;;;;;;;23.08;9.55;;;;;;;;;;5069937;28;20031;-71
2020/12/03 08:00:15;;;;;;;23.38;9.40;;;;;;;;;;5070152;28;20094;-72
2020/12/03 08:02:49;;;;;;;23.98;9.80;;;;;;;;;;5070194;28;20032;-75
2020/12/03 08:05:48;;;;;;;19.35;9.55;;;;;;;;;;5070419;28;20409;-72
2020/12/03 08:08:29;;;;;;;21.77;9.65;;;;;;;;;;5036208;28;20404;-72
2020/12/03 08:10:55;;;;;;;18.08;8.30;;;;;;;;;;5069969;28;20036;-72
2020/12/03 08:13:36;;;;;;;27.15;7.88;;;;;;;;;;5070086;28;20029;-76
2020/12/03 08:16:04;;;;;;;20.40;9.00;;;;;;;;;;5072228;28;20031;-73
2020/12/03 08:19:03;;;;;;;19.83;8.75;;;;;;;;;;5072423;28;20017;-72
2020/12/03 08:21:39;;;;;;;22.08;8.73;;;;;;;;;;5038833;28;20087;-71
2020/12/03 08:24:06;;;;;;;20.70;8.95;;;;;;;;;;5072358;28;20119;-72
2020/12/03 08:26:33;;;;;;;21.52;9.38;;;;;;;;;;5072423;28;20085;-75
2020/12/03 08:28:59;;;;;;;23.65;8.43;;;;;;;;;;5072377;28;20021;-72
2020/12/03 08:31:25;;;;;;;21.10;8.40;;;;;;;;;;5072585;28;20020;-73
2020/12/03 08:33:52;;;;;;;20.83;8.80;;;;;;;;;;5072242;28;20024;-72
2020/12/03 08:36:18;;;;;;;22.52;9.45;;;;;;;;;;5072331;28;20025;-72
2020/12/03 08:38:47;;;;;;;25.92;8.80;;;;;;;;;;5072525;28;20082;-72
2020/12/03 08:41:16;;;;;;;21.75;8.93;;;;;;;;;;5072285;28;20033;-75
2020/12/03 08:43:50;;;;;;;23.88;8.95;;;;;;;;;;5072342;28;20025;-75
2020/12/03 08:46:24;;;;;;;23.20;9.27;;;;;;;;;;5075131;28;20039;-75
2020/12/03 08:48:50;;;;;;;19.27;8.90;;;;;;;;;;5076121;28;20750;-74
2020/12/03 08:51:17;;;;;;;20.63;9.43;;;;;;;;;;5076408;28;20059;-72
2020/12/03 08:53:49;;;;;;;22.50;10.50;;;;;;;;;;5076265;28;20496;-74
2020/12/03 08:56:15;;;;;;;21.60;9.35;;;;;;;;;;5076119;28;20024;-72
2020/12/03 08:58:54;;;;;;;22.92;8.57;;;;;;;;;;5075933;28;20037;-72
2020/12/03 09:01:22;;;;;;;20.35;8.73;;;;;;;;;;5075589;28;20059;-73
2020/12/03 09:03:48;;;;;;;28.58;10.48;;;;;;;;;;5075989;28;20082;-72
2020/12/03 09:06:14;;;;;;;23.05;9.50;;;;;;;;;;5074340;28;20074;-72
2020/12/03 09:08:40;;;;;;;21.00;9.07;;;;;;;;;;5075980;28;20479;-72
2020/12/03 09:11:07;;;;;;;20.55;9.07;;;;;;;;;;5075838;28;20028;-72
2020/12/03 09:13:33;;;;;;;22.98;10.15;;;;;;;;;;5074659;28;20033;-72
2020/12/03 09:15:59;;;;;;;18.88;8.65;;;;;;;;;;5075680;28;20078;-72
2020/12/03 09:18:25;;;;;;;22.33;9.27;;;;;;;;;;5075856;28;20407;-72
2020/12/03 09:20:51;;;;;;;25.98;9.75;;;;;;;;;;5075776;28;20032;-72
2020/12/03 09:23:18;;;;;;;21.95;9.48;;;;;;;;;;5075528;28;20028;-73
2020/12/03 09:25:45;;;;;;;21.15;10.02;;;;;;;;;;5075659;28;20020;-72
2020/12/03 09:28:11;;;;;;;21.25;9.77;;;;;;;;;;5069554;28;20082;-72
2020/12/03 09:30:39;;;;;;;22.27;8.88;;;;;;;;;;5053163;28;20381;-72
2020/12/03 09:33:08;;;;;;;22.52;9.15;;;;;;;;;;5053059;28;20033;-71
2020/12/03 09:35:35;;;;;;;23.92;11.05;;;;;;;;;;5052818;28;20029;-75
2020/12/03 09:38:03;;;;;;;28.92;11.18;;;;;;;;;;5052739;28;20029;-72
2020/12/03 09:40:29;;;;;;;29.80;11.57;;;;;;;;;;5052464;28;20036;-71
2020/12/03 09:42:57;;;;;;;21.92;10.02;;;;;;;;;;5052625;28;20041;-75
2020/12/03 09:45:34;;;;;;;20.85;9.32;;;;;;;;;;5052668;28;20025;-71
2020/12/03 09:48:01;;;;;;;18.60;9.43;;;;;;;;;;5052515;28;20028;-72
2020/12/03 09:50:27;;;;;;;20.27;7.70;;;;;;;;;;5052565;28;20493;-72
2020/12/03 09:52:54;;;;;;;18.70;8.68;;;;;;;;;;5052544;28;20064;-74
2020/12/03 09:55:21;;;;;;;19.65;8.40;;;;;;;;;;5052641;28;20029;-72
2020/12/03 09:57:57;;;;;;;20.52;8.57;;;;;;;;;;5067616;28;20449;-73
2020/12/03 10:00:28;;;;;;;18.17;7.85;;;;;;;;;;5092653;28;20052;-76
2020/12/03 10:02:57;;;;;;;16.42;8.15;;;;;;;;;;5092389;28;20085;-72
2020/12/03 10:05:38;;;;;;;16.20;7.95;;;;;;;;;;5090891;28;20032;-72
2020/12/03 10:08:23;;;;;;;22.55;8.13;;;;;;;;;;5092339;28;20051;-72
2020/12/03 10:11:06;;;;;;;16.88;6.88;;;;;;;;;;5091958;28;20082;-72
2020/12/03 10:13:44;;;;;;;16.15;7.13;;;;;;;;;;5090993;28;20024;-71
2020/12/03 10:16:11;;;;;;;17.95;6.18;;;;;;;;;;5091728;28;20031;-72
2020/12/03 10:18:44;;;;;;;17.17;7.35;;;;;;;;;;5091961;28;20054;-72
2020/12/03 10:21:14;;;;;;;13.70;6.38;;;;;;;;;;5092078;28;20032;-73
2020/12/03 10:23:59;;;;;;;17.38;7.05;;;;;;;;;;5091822;28;20484;-73
2020/12/03 10:26:38;;;;;;;15.93;6.97;;;;;;;;;;5091790;28;20063;-73
2020/12/03 10:29:22;;;;;;;12.10;5.97;;;;;;;;;;5079295;28;20028;-72
2020/12/03 10:31:48;;;;;;;16.23;6.82;;;;;;;;;;5071420;28;20361;-73
2020/12/03 10:34:15;;;;;;;15.98;6.82;;;;;;;;;;5071149;28;20035;-73
2020/12/03 10:36:48;;;;;;;15.13;5.80;;;;;;;;;;5070250;28;20031;-72
2020/12/03 10:39:16;;;;;;;13.13;5.45;;;;;;;;;;5071115;28;20020;-73
2020/12/03 10:41:43;;;;;;;12.38;5.13;;;;;;;;;;5070997;28;20040;-73
2020/12/03 10:44:15;;;;;;;13.27;5.90;;;;;;;;;;5071128;28;20107;-73
2020/12/03 10:46:44;;;;;;;11.00;4.95;;;;;;;;;;5071273;28;20027;-72
2020/12/03 10:49:15;;;;;;;12.85;6.20;;;;;;;;;;5071249;28;20560;-72
2020/12/03 10:51:41;;;;;;;11.85;5.63;;;;;;;;;;5069637;28;20027;-74
2020/12/03 10:54:07;;;;;;;9.88;4.75;;;;;;;;;;5069286;28;20029;-73
2020/12/03 10:56:36;;;;;;;10.40;6.10;;;;;;;;;;5070679;28;20384;-73
2020/12/03 10:59:12;;;;;;;11.65;5.03;;;;;;;;;;5070594;28;20063;-74
2020/12/03 11:01:38;;;;;;;11.75;4.95;;;;;;;;;;5070858;28;20020;-74
2020/12/03 11:04:05;;;;;;;11.27;5.70;;;;;;;;;;5070468;28;20043;-73
2020/12/03 11:06:32;;;;;;;11.60;6.07;;;;;;;;;;5071141;28;20025;-73
2020/12/03 11:08:59;;;;;;;10.75;4.85;;;;;;;;;;5070269;28;20046;-73
2020/12/03 11:11:32;;;;;;;12.07;4.47;;;;;;;;;;5070787;28;20484;-73
2020/12/03 11:13:58;;;;;;;9.98;4.60;;;;;;;;;;5070580;28;20051;-73
2020/12/03 11:16:28;;;;;;;10.90;5.45;;;;;;;;;;5070361;28;20028;-73
2020/12/03 11:18:56;;;;;;;12.93;5.80;;;;;;;;;;5070618;28;20020;-75
2020/12/03 11:21:24;;;;;;;13.48;6.05;;;;;;;;;;5070089;28;20032;-74
2020/12/03 11:24:14;;;;;;;10.70;5.05;;;;;;;;;;5070307;28;20632;-74
2020/12/03 11:26:41;;;;;;;11.50;5.28;;;;;;;;;;5070200;28;20027;-74
2020/12/03 11:29:11;;;;;;;12.10;5.18;;;;;;;;;;5070035;28;20031;-74
2020/12/03 11:31:37;;;;;;;10.82;5.38;;;;;;;;;;5070476;28;20031;-74
2020/12/03 11:34:03;;;;;;;10.23;5.20;;;;;;;;;;5070415;28;20506;-73
2020/12/03 11:36:34;;;;;;;11.65;5.65;;;;;;;;;;5069029;28;20074;-72
2020/12/03 11:39:02;;;;;;;12.70;5.85;;;;;;;;;;5069646;28;20025;-75
2020/12/03 11:42:15;;;;;;;11.40;5.53;;;;;;;;;;5069670;28;20532;-74
2020/12/03 11:50:13;;;;;;;14.13;6.40;;;;;;;;;;5070189;28;20783;-74
2020/12/03 11:52:39;;;;;;;18.75;6.22;;;;;;;;;;5069866;28;20020;-73
2020/12/03 11:55:16;;;;;;;13.73;6.75;;;;;;;;;;5068794;28;20103;-73
2020/12/03 11:57:42;;;;;;;15.70;7.07;;;;;;;;;;5070008;28;20029;-78
2020/12/03 12:00:15;;;;;;;13.95;6.78;;;;;;;;;;5069598;28;20080;-78
2020/12/03 12:02:42;;;;;;;12.20;6.13;;;;;;;;;;5069531;28;20082;-73
2020/12/03 12:05:15;;;;;;;15.25;6.75;;;;;;;;;;5068127;28;20036;-73
2020/12/03 12:07:56;;;;;;;13.40;6.35;;;;;;;;;;5069826;28;20024;-74
2020/12/03 12:10:31;;;;;;;15.75;6.80;;;;;;;;;;5069522;28;20031;-73
2020/12/03 12:12:57;;;;;;;14.35;6.43;;;;;;;;;;5069737;28;20032;-72
2020/12/03 12:15:23;;;;;;;14.05;6.68;;;;;;;;;;5069785;28;20429;-73
2020/12/03 12:17:49;;;;;;;12.95;6.68;;;;;;;;;;5069228;28;20032;-73
2020/12/03 12:20:18;;;;;;;16.40;6.90;;;;;;;;;;5068912;28;20389;-78
2020/12/03 12:22:44;;;;;;;15.70;6.82;;;;;;;;;;5069440;28;20045;-74
2020/12/03 12:25:10;;;;;;;15.75;7.72;;;;;;;;;;5069784;28;20082;-73
2020/12/03 12:27:36;;;;;;;15.02;7.07;;;;;;;;;;5069505;28;20314;-73
2020/12/03 12:30:03;;;;;;;15.90;7.72;;;;;;;;;;5068976;28;20052;-73
2020/12/03 12:32:29;;;;;;;15.68;8.20;;;;;;;;;;5069407;28;20476;-73
2020/12/03 12:34:55;;;;;;;20.10;8.32;;;;;;;;;;5069398;28;20039;-73
2020/12/03 12:37:21;;;;;;;13.50;7.05;;;;;;;;;;5069317;28;20111;-73
2020/12/03 12:39:47;;;;;;;17.60;7.32;;;;;;;;;;5068814;28;20033;-73
2020/12/03 12:42:14;;;;;;;14.30;7.45;;;;;;;;;;5067706;28;20416;-73
2020/12/03 12:44:40;;;;;;;13.63;7.85;;;;;;;;;;5069387;28;20439;-73
2020/12/03 12:47:06;;;;;;;15.35;7.75;;;;;;;;;;5069350;28;20036;-73
2020/12/03 12:49:33;;;;;;;13.13;7.00;;;;;;;;;;5069207;28;20021;-73
2020/12/03 12:51:59;;;;;;;13.85;7.10;;;;;;;;;;5068853;28;20024;-73
2020/12/03 12:54:25;;;;;;;13.30;6.78;;;;;;;;;;5069369;28;20035;-73
2020/12/03 12:56:53;;;;;;;13.73;7.30;;;;;;;;;;5069119;28;20421;-73
2020/12/03 12:59:19;;;;;;;17.13;8.25;;;;;;;;;;5069071;28;20059;-72
2020/12/03 13:01:45;;;;;;;13.68;7.63;;;;;;;;;;5069042;28;20033;-73
2020/12/03 13:04:17;;;;;;;15.63;8.02;;;;;;;;;;5068429;28;20079;-77
2020/12/03 13:06:43;;;;;;;16.13;7.60;;;;;;;;;;5068868;28;20379;-72
2020/12/03 13:09:10;;;;;;;18.73;8.10;;;;;;;;;;5069237;28;20025;-73
2020/12/03 13:11:37;;;;;;;17.60;8.07;;;;;;;;;;5069053;28;20426;-72
2020/12/03 13:14:06;;;;;;;20.75;9.07;;;;;;;;;;5069060;28;20052;-76
2020/12/03 13:16:33;;;;;;;19.77;9.80;;;;;;;;;;5068761;28;20024;-72
2020/12/03 13:18:59;;;;;;;16.00;8.23;;;;;;;;;;5068778;28;20177;-74
2020/12/03 13:21:26;;;;;;;17.20;8.27;;;;;;;;;;5068970;28;20028;-71
2020/12/03 13:23:52;;;;;;;17.95;7.28;;;;;;;;;;5067408;28;20127;-74
2020/12/03 13:26:18;;;;;;;17.10;8.63;;;;;;;;;;5067497;28;20384;-73
2020/12/03 13:28:45;;;;;;;17.80;9.13;;;;;;;;;;5068280;28;20013;-73
2020/12/03 13:31:11;;;;;;;17.25;8.15;;;;;;;;;;5070053;28;20025;-72
2020/12/03 13:33:37;;;;;;;16.77;8.30;;;;;;;;;;5071437;28;20073;-73
2020/12/03 13:36:03;;;;;;;18.80;9.00;;;;;;;;;;5072485;28;20020;-72
2020/12/03 13:38:29;;;;;;;17.35;8.50;;;;;;;;;;5072353;28;20016;-73
2020/12/03 13:40:55;;;;;;;19.65;9.77;;;;;;;;;;5072129;28;20029;-72
2020/12/03 13:43:21;;;;;;;14.80;8.52;;;;;;;;;;5071969;28;20170;-72
2020/12/03 13:45:47;;;;;;;17.67;8.38;;;;;;;;;;5072140;28;20021;-72
2020/12/03 13:48:14;;;;;;;22.27;9.43;;;;;;;;;;5072262;28;20025;-72
2020/12/03 13:50:41;;;;;;;19.73;9.38;;;;;;;;;;5072043;28;20074;-72
2020/12/03 13:53:07;;;;;;;17.10;8.00;;;;;;;;;;5071887;28;20025;-73
2020/12/03 13:55:33;;;;;;;18.77;9.93;;;;;;;;;;5072432;28;20028;-73
2020/12/03 13:58:00;;;;;;;15.07;7.78;;;;;;;;;;5070845;28;20040;-72
2020/12/03 14:00:29;;;;;;;16.75;8.75;;;;;;;;;;5071951;28;20048;-72
2020/12/03 14:02:55;;;;;;;20.00;9.70;;;;;;;;;;5072105;28;20044;-73
2020/12/03 14:05:21;;;;;;;19.40;9.63;;;;;;;;;;5071389;28;20063;-72
2020/12/03 14:07:47;;;;;;;17.83;9.68;;;;;;;;;;5071797;28;20048;-71
2020/12/03 14:10:15;;;;;;;18.15;9.90;;;;;;;;;;5071768;28;20103;-71
2020/12/03 14:12:41;;;;;;;18.42;8.43;;;;;;;;;;5071742;28;20028;-71
2020/12/03 14:15:07;;;;;;;16.48;9.15;;;;;;;;;;5072039;28;20067;-72
2020/12/03 14:17:33;;;;;;;19.77;9.60;;;;;;;;;;5071442;28;20028;-76
2020/12/03 14:19:59;;;;;;;17.13;8.48;;;;;;;;;;5070198;28;20028;-73
2020/12/03 14:22:25;;;;;;;17.77;9.13;;;;;;;;;;5071468;28;20834;-72
2020/12/03 14:24:51;;;;;;;17.02;8.40;;;;;;;;;;5071470;28;20499;-74
2020/12/03 14:27:17;;;;;;;19.83;9.70;;;;;;;;;;5071570;28;20052;-72
2020/12/03 14:29:44;;;;;;;19.15;8.80;;;;;;;;;;5071365;28;20089;-73
2020/12/03 14:32:10;;;;;;;17.40;8.63;;;;;;;;;;5071042;28;20020;-73
2020/12/03 14:34:36;;;;;;;16.35;7.97;;;;;;;;;;5071323;28;20025;-73
2020/12/03 14:37:03;;;;;;;21.85;9.50;;;;;;;;;;5071468;28;20089;-73
2020/12/03 14:39:29;;;;;;;19.67;9.68;;;;;;;;;;5067716;28;20028;-72
2020/12/03 14:41:55;;;;;;;20.58;10.00;;;;;;;;;;5070956;28;20103;-72